Historyczne dane pomiarowe

Dodano dane terminowe – wersja testowa.

Dane z okresu 1951-2019

Wersja bazy: 1.34 [2019-03-16, lista zmian], aktualizacja planowana na 2019-04-15

Dane meteo z obszaru Polski uzyskane na podstawie danych udostępnionych przez Instytut Meteorologii i Gospodarki Wodnej – Państwowy Instytut Badawczy.

 

Wybierz Datę:    

       

TemperaturaWilgotnośćWiatrCiśnienieOpadyŚniegCzas trwania zjawisk
 Stacja t tx tn tng RH VA  wxwx mslp ppp RRR   cm mm wxwxwxwxwxwxwx
1983-08-14 14.5 20.1 8.3 6.7 66.3- 3.3 2.7---- 0.0------------
1983-08-13 15.9 21.6 13.9 10.8 79.0- 6.7 5.3---- 1.5------------
1983-08-12 20.6 26.7 14.2 10.5 61.5- 0.0 3.3---- 2.9------------
1983-08-11 20.2 27.2 13.3 10.2 68.0- 2.3 0.0---- 0.0------------
1983-08-10 19.9 26.7 12.0 8.8 70.5- 0.7 1.3---- 0.0------------
1983-08-09 21.1 27.3 14.3 11.7 70.0- 0.7 2.0---- 0.0------------
1983-08-08 19.8 27.3 13.0 10.4 79.3- 5.7 1.3---- 0.0------------
1983-08-07 18.8 25.1 15.9 13.7 85.5- 6.3 0.7---- 3.2------------
1983-08-06 16.6 22.2 10.2 8.2 76.0- 3.0 2.3---- 0.2------------
1983-08-05 15.0 19.5 11.4 11.0 76.0- 7.7 1.0---- 0.0------------
1983-08-04 14.5 21.2 12.7 13.2 86.0- 7.0 3.7---- 9.8------------
1983-08-03 20.6 26.4 17.4 16.7 85.0- 7.3 3.0---- 5.8------------
1983-08-02 21.9 29.3 15.7 13.3 60.0- 4.7 3.7---- 16.4------------
1983-08-01 21.8 28.4 12.3 8.2 50.0- 0.0 5.0---- 0.0------------
1983-07-31 18.5 25.4 10.4 6.5 60.5- 1.3 0.7---- 0.0------------
1983-07-30 18.0 21.7 8.0 5.5 71.3- 8.0 3.3---- 0.5------------
1983-07-29 19.6 25.6 13.5 11.7 64.5- 3.0 3.7---- 0.1------------
1983-07-28 23.2 27.7 19.6 17.0 62.8- 5.3 5.3---- 0.0------------
1983-07-27 23.0 31.6 14.5 10.8 66.8- 0.0 2.0---- 1.4------------
1983-07-26 21.3 29.3 13.3 11.0 66.3- 0.7 2.7---- 0.0------------
1983-07-25 15.2 20.1 8.5 4.9 82.5- 7.3 3.3---- 0.3------------
1983-07-24 16.3 19.3 13.9 12.5 81.3- 6.3 1.3---- 1.5------------
1983-07-23 16.1 22.9 11.7 9.2 74.5- 5.3 3.3---- 2.9------------
1983-07-22 15.0 20.5 10.4 8.0 69.0- 6.7 5.0---- 0.6------------
1983-07-21 14.1 18.6 9.6 8.0 64.3- 3.7 6.0---- 0.2------------
1983-07-20 14.9 24.2 11.0 12.0 73.5- 6.0 5.0---- 7.3------------
1983-07-19 24.0 27.3 21.3 21.2 57.3- 5.7 4.3---- 0.0------------
1983-07-18 21.7 30.3 9.8 6.2 54.3- 1.3 2.7---- 0.0------------
1983-07-17 20.1 24.5 15.6 13.1 61.5- 0.0 2.0---- 0.0------------
1983-07-16 21.7 29.1 14.6 8.8 59.5- 4.0 4.3---- 1.4------------
1983-07-15 19.3 26.0 9.5 4.8 64.3- 0.7 3.0---- 0.0------------
1983-07-14 20.6 26.3 16.9 15.1 73.3- 5.3 4.0---- 0.5------------
1983-07-13 20.9 26.7 15.7 12.7 75.3- 2.0 2.3---- 0.2------------
1983-07-12 21.1 25.6 16.3 15.7 76.0- 4.0 2.7---- 0.0------------
1983-07-11 21.2 26.9 16.5 12.8 73.3- 6.0 2.0---- 8.2------------
1983-07-10 22.5 29.9 13.3 8.2 56.3- 1.7 4.0---- 0.0------------
1983-07-09 21.6 28.6 11.9 8.1 59.5- 0.7 2.7---- 0.0------------
1983-07-08 19.2 27.0 9.2 4.1 59.3- 0.0 1.3---- 0.0------------
1983-07-07 20.6 27.1 12.0 7.8 57.5- 0.0 2.0---- 0.0------------
1983-07-06 20.9 27.6 11.1 7.2 64.0- 0.0 1.3---- 0.0------------
1983-07-05 19.5 24.3 12.7 8.8 63.5- 0.7 3.3---- 0.0------------
1983-07-04 21.8 26.7 14.6 10.2 58.5- 0.7 2.3---- 0.0------------
1983-07-03 18.1 24.6 9.6 5.4 66.0- 3.0 1.3---- 0.0------------
1983-07-02 18.6 23.1 15.5 14.8 76.8- 4.0 4.0---- 0.0------------
1983-07-01 20.3 25.7 12.4 8.6 67.5- 3.3 3.0---- 0.0------------
1983-06-30 18.1 23.7 10.0 6.0 54.8- 0.0 2.7---- 0.0------------
1983-06-29 14.3 20.3 8.0 3.7 65.0- 1.0 1.0---- 0.0------------
1983-06-28 17.1 21.0 14.7 13.8 73.8- 5.3 2.7---- 1.8------------
1983-06-27 19.2 25.7 12.3 8.4 81.5- 5.7 2.7---- 5.4------------
1983-06-26 20.6 25.3 14.3 12.3 56.5- 0.0 1.0---- 0.0------------
1983-06-25 21.6 29.3 13.7 7.8 55.3- 5.3 3.0---- 0.8------------
1983-06-24 18.2 26.5 7.6 2.9 54.8- 0.0 3.0---- 0.0------------
1983-06-23 15.3 21.7 5.9 2.6 56.0- 0.0 1.7---- 0.0------------
1983-06-22 14.4 19.6 7.2 3.1 51.3- 0.0 4.3---- 0.0------------
1983-06-21 17.6 24.4 10.9 7.2 64.8- 0.3 3.0---- 0.0------------
1983-06-20 20.1 25.4 13.9 10.7 62.3- 3.3 2.3---- 0.0------------
1983-06-19 17.5 20.3 13.9 13.5 79.0- 8.0 2.7---- 0.7------------
1983-06-18 14.5 17.1 11.0 10.3 77.8- 8.0 2.3---- 0.0------------
1983-06-17 13.6 18.5 7.4 4.9 72.5- 6.3 2.3---- 0.0------------
1983-06-16 12.9 16.7 9.7 9.9 79.3- 7.0 3.7---- 0.5------------
367.1 ms

 

Źródłem pochodzenia danych jest Instytut Meteorologii i Gospodarki Wodnej – Państwowy Instytut Badawczy. Dane Instytutu Meteorologii i Gospodarki Wodnej – Państwowego Instytutu Badawczego zostały przetworzone.

Dane źródłowe można odnaleźć na stronie https://dane.imgw.pl